createdAt,value
2019-04-27T00:00:48.008Z,71.06
2019-04-27T00:01:56.137Z,70.85
2019-04-27T00:03:06.069Z,70.64
2019-04-27T00:04:11.706Z,70.02
2019-04-27T00:05:35.484Z,70.28
2019-04-27T00:06:42.956Z,70.48
2019-04-27T00:07:57.944Z,70.34
2019-04-27T00:09:00.044Z,70.36
2019-04-27T00:10:13.583Z,70.89
2019-04-27T00:11:24.331Z,70.12
2019-04-27T00:12:28.226Z,70.12
2019-04-27T00:13:34.811Z,70.05
2019-04-27T00:14:37.140Z,70.23
2019-04-27T00:15:43.825Z,70.19
2019-04-27T00:16:50.895Z,70.34
2019-04-27T00:18:04.583Z,69.99
2019-04-27T00:19:23.215Z,69.59
2019-04-27T00:20:30.807Z,69.45
2019-04-27T00:21:35.876Z,69.07
2019-04-27T00:22:40.945Z,69.14
2019-04-27T00:23:46.088Z,69.04
2019-04-27T00:24:49.543Z,68.88
2019-04-27T00:25:53.086Z,68.80
2019-04-27T00:26:56.551Z,68.81
2019-04-27T00:28:00.063Z,68.83
2019-04-27T00:29:03.958Z,68.85
2019-04-27T00:30:07.732Z,68.86
2019-04-27T00:31:11.177Z,68.71
2019-04-27T00:32:14.734Z,68.78
2019-04-27T00:33:18.166Z,68.88
2019-04-27T00:34:21.693Z,68.94
2019-04-27T00:35:26.833Z,68.83
2019-04-27T00:36:35.194Z,69.06
2019-04-27T00:37:40.391Z,69.30
2019-04-27T00:38:45.535Z,69.38
2019-04-27T00:39:53.327Z,69.51
2019-04-27T00:41:04.156Z,69.53
2019-04-27T00:42:07.745Z,69.63
2019-04-27T00:43:11.174Z,69.19
2019-04-27T00:44:14.612Z,69.19
2019-04-27T00:45:18.217Z,69.23
2019-04-27T00:46:22.865Z,69.25
2019-04-27T00:47:26.317Z,69.27
2019-04-27T00:48:29.752Z,68.94
2019-04-27T00:49:33.250Z,68.93
2019-04-27T00:50:36.714Z,68.82
2019-04-27T00:51:40.154Z,68.81
2019-04-27T00:52:43.584Z,68.69
2019-04-27T00:53:47.152Z,69.03
2019-04-27T00:54:50.584Z,69.02
2019-04-27T00:56:11.724Z,69.26
2019-04-27T00:57:19.513Z,69.26
2019-04-27T00:58:24.579Z,68.89
2019-04-27T00:59:47.520Z,68.89
2019-04-27T01:00:53.998Z,68.95
2019-04-27T01:02:11.176Z,68.88
2019-04-27T01:03:18.877Z,68.91
2019-04-27T01:04:26.537Z,69.21
2019-04-27T01:05:30.888Z,69.21
2019-04-27T01:06:34.384Z,69.15
2019-04-27T01:07:37.881Z,69.53
2019-04-27T01:08:42.757Z,69.53
2019-04-27T01:09:46.456Z,69.44
2019-04-27T01:10:49.973Z,69.29
2019-04-27T01:11:53.549Z,69.29
2019-04-27T01:12:57.043Z,69.13
2019-04-27T01:14:00.540Z,69.31
2019-04-27T01:15:05.005Z,69.31
2019-04-27T01:16:10.498Z,69.72
2019-04-27T01:17:14.117Z,69.65
2019-04-27T01:18:19.393Z,69.65
2019-04-27T01:19:22.846Z,69.88
2019-04-27T01:20:26.349Z,70.31
2019-04-27T01:21:29.868Z,70.61
2019-04-27T01:22:33.238Z,70.41
2019-04-27T01:23:38.218Z,70.30
2019-04-27T01:24:41.936Z,70.25
2019-04-27T01:26:03.066Z,70.10
2019-04-27T01:27:14.196Z,69.95
2019-04-27T01:28:29.059Z,70.18
2019-04-27T01:29:36.710Z,70.15
2019-04-27T01:30:44.730Z,70.21
2019-04-27T01:31:48.653Z,70.53
2019-04-27T01:32:52.249Z,70.53
2019-04-27T01:33:55.688Z,70.71
2019-04-27T01:34:59.595Z,70.62
2019-04-27T01:36:03.020Z,70.30
2019-04-27T01:37:06.631Z,70.49
2019-04-27T01:38:10.058Z,70.71
2019-04-27T01:39:15.379Z,70.94
2019-04-27T01:40:19.365Z,71.23
2019-04-27T01:41:22.868Z,71.23
2019-04-27T01:42:26.299Z,70.79
2019-04-27T01:43:30.275Z,70.79
2019-04-27T01:44:33.733Z,71.05
2019-04-27T01:45:39.128Z,70.98
2019-04-27T01:46:42.791Z,71.78
2019-04-27T01:47:46.220Z,71.49
2019-04-27T01:48:49.644Z,71.86
2019-04-27T01:49:53.143Z,71.98
2019-04-27T01:50:56.702Z,71.90
2019-04-27T01:52:00.223Z,72.14
2019-04-27T01:53:03.732Z,71.99
2019-04-27T01:54:10.462Z,72.22
2019-04-27T01:55:14.341Z,72.44
2019-04-27T01:56:19.472Z,72.61
2019-04-27T01:57:23.104Z,73.17
2019-04-27T01:58:26.617Z,72.97
2019-04-27T01:59:30.115Z,73.11
2019-04-27T02:00:54.264Z,73.32
2019-04-27T02:01:59.349Z,73.34
2019-04-27T02:03:04.427Z,73.49
2019-04-27T02:04:29.371Z,73.52
2019-04-27T02:05:39.039Z,73.62
2019-04-27T02:06:42.659Z,73.85
2019-04-27T02:07:46.165Z,74.40
2019-04-27T02:08:49.702Z,74.57
2019-04-27T02:09:53.127Z,74.83
2019-04-27T02:10:56.553Z,74.89
2019-04-27T02:11:59.982Z,74.85
2019-04-27T02:13:03.637Z,75.14
2019-04-27T02:14:07.220Z,75.04
2019-04-27T02:15:10.814Z,75.53
2019-04-27T02:16:14.284Z,75.71
2019-04-27T02:17:18.700Z,75.68
2019-04-27T02:18:34.620Z,75.68
2019-04-27T02:19:29.221Z,75.96
2019-04-27T02:20:32.774Z,76.06
2019-04-27T02:21:36.370Z,76.07
2019-04-27T02:22:39.888Z,76.40
2019-04-27T02:23:43.402Z,76.60
2019-04-27T02:24:46.831Z,76.58
2019-04-27T02:25:50.423Z,76.96
2019-04-27T02:26:53.926Z,76.82
2019-04-27T02:28:01.782Z,76.82
2019-04-27T02:29:08.698Z,77.23
2019-04-27T02:30:30.701Z,77.02
2019-04-27T02:31:35.859Z,76.88
2019-04-27T02:32:46.378Z,76.92
2019-04-27T02:33:51.600Z,76.79
2019-04-27T02:34:56.698Z,77.15
2019-04-27T02:36:00.506Z,77.39
2019-04-27T02:37:04.699Z,77.21
2019-04-27T02:38:10.090Z,77.21
2019-04-27T02:39:13.374Z,77.24
2019-04-27T02:40:44.988Z,77.16
2019-04-27T02:41:49.874Z,77.24
2019-04-27T02:42:54.602Z,77.13
2019-04-27T02:44:15.748Z,77.03
2019-04-27T02:45:19.560Z,77.28
2019-04-27T02:46:24.567Z,77.16
2019-04-27T02:47:29.485Z,77.06
2019-04-27T02:48:33.010Z,76.90
2019-04-27T02:49:36.511Z,77.15
2019-04-27T02:50:40.146Z,77.04
2019-04-27T02:51:45.317Z,76.82
2019-04-27T02:52:50.058Z,76.68
2019-04-27T02:54:00.128Z,76.57
2019-04-27T02:55:03.937Z,76.69
2019-04-27T02:56:10.045Z,76.55
2019-04-27T02:57:12.612Z,76.44
2019-04-27T02:58:16.041Z,76.42
2019-04-27T02:59:19.957Z,76.26
2019-04-27T03:00:23.631Z,76.44
2019-04-27T03:01:30.501Z,76.41
2019-04-27T03:02:35.763Z,76.20
2019-04-27T03:03:41.104Z,75.99
2019-04-27T03:04:44.354Z,76.03
2019-04-27T03:05:50.275Z,76.07
2019-04-27T03:06:53.098Z,76.27
2019-04-27T03:07:59.371Z,76.27
2019-04-27T03:09:01.890Z,76.25
2019-04-27T03:10:06.788Z,76.22
2019-04-27T03:11:10.303Z,76.30
2019-04-27T03:12:14.597Z,76.26
2019-04-27T03:13:22.605Z,76.35
2019-04-27T03:14:36.047Z,76.32
2019-04-27T03:15:40.374Z,76.45
2019-04-27T03:17:00.672Z,76.67
2019-04-27T03:18:24.014Z,76.65
2019-04-27T03:19:45.058Z,76.52
2019-04-27T03:20:50.498Z,76.49
2019-04-27T03:22:01.568Z,76.44
2019-04-27T03:23:06.704Z,76.04
2019-04-27T03:24:10.204Z,75.91
2019-04-27T03:25:15.926Z,75.88
2019-04-27T03:26:21.197Z,75.56
2019-04-27T03:27:26.399Z,75.56
2019-04-27T03:28:30.011Z,75.72
2019-04-27T03:29:33.655Z,75.72
2019-04-27T03:30:41.756Z,75.96
2019-04-27T03:31:47.558Z,75.64
2019-04-27T03:32:55.017Z,75.61
2019-04-27T03:33:58.967Z,76.09
2019-04-27T03:35:02.692Z,76.42
2019-04-27T03:36:03.742Z,76.72
2019-04-27T03:37:10.138Z,76.80
2019-04-27T03:38:12.703Z,77.05
2019-04-27T03:39:16.183Z,77.31
2019-04-27T03:40:20.485Z,77.76
2019-04-27T03:41:24.152Z,77.83
2019-04-27T03:42:29.310Z,77.89
2019-04-27T03:43:32.879Z,77.99
2019-04-27T03:44:36.448Z,77.99
2019-04-27T03:45:40.204Z,78.12
2019-04-27T03:46:43.799Z,78.47
2019-04-27T03:47:47.248Z,79.02
2019-04-27T03:48:50.828Z,79.02
2019-04-27T03:49:54.612Z,78.94
2019-04-27T03:51:02.896Z,78.88
2019-04-27T03:52:10.797Z,78.86
2019-04-27T03:53:20.558Z,78.85
2019-04-27T03:54:29.638Z,78.93
2019-04-27T03:55:34.898Z,79.00
2019-04-27T03:56:50.849Z,79.11
2019-04-27T03:58:12.098Z,79.15
2019-04-27T03:59:23.528Z,79.68
2019-04-27T04:00:29.994Z,79.68
2019-04-27T04:01:33.809Z,79.42
2019-04-27T04:02:40.048Z,79.81
2019-04-27T04:03:42.786Z,79.76
2019-04-27T04:04:46.363Z,79.67
2019-04-27T04:05:51.910Z,79.42
2019-04-27T04:06:56.635Z,79.40
2019-04-27T04:08:00.562Z,79.57
2019-04-27T04:09:06.840Z,79.52
2019-04-27T04:10:10.970Z,79.68
2019-04-27T04:11:34.062Z,79.68
2019-04-27T04:12:40.077Z,79.68
2019-04-27T04:13:50.674Z,79.55
2019-04-27T04:14:54.175Z,79.56
2019-04-27T04:16:01.919Z,79.65
2019-04-27T04:17:07.120Z,79.82
2019-04-27T04:18:12.341Z,79.92
2019-04-27T04:19:15.802Z,79.80
2019-04-27T04:20:20.195Z,79.80
2019-04-27T04:21:23.808Z,79.87
2019-04-27T04:22:27.232Z,79.56
2019-04-27T04:23:30.758Z,79.76
2019-04-27T04:24:34.206Z,79.76
2019-04-27T04:25:37.633Z,79.77
2019-04-27T04:26:42.858Z,79.60
2019-04-27T04:27:46.296Z,79.02
2019-04-27T04:28:50.092Z,79.02
2019-04-27T04:29:53.539Z,79.29
2019-04-27T04:30:56.970Z,79.34
2019-04-27T04:32:00.710Z,79.47
2019-04-27T04:33:04.304Z,79.48
2019-04-27T04:34:09.721Z,79.51
2019-04-27T04:35:21.120Z,79.44
2019-04-27T04:36:23.762Z,79.44
2019-04-27T04:37:29.426Z,79.40
2019-04-27T04:38:32.400Z,79.20
2019-04-27T04:39:35.984Z,78.97
2019-04-27T04:40:43.752Z,78.89
2019-04-27T04:41:51.023Z,78.86
2019-04-27T04:42:55.687Z,79.16
2019-04-27T04:44:00.742Z,78.91
2019-04-27T04:45:10.380Z,78.94
2019-04-27T04:46:23.670Z,78.73
2019-04-27T04:47:49.567Z,78.65
2019-04-27T04:48:52.457Z,78.73
2019-04-27T04:50:10.232Z,78.86
2019-04-27T04:51:01.308Z,78.94
2019-04-27T04:52:04.802Z,79.00
2019-04-27T04:53:11.774Z,79.07
2019-04-27T04:54:13.370Z,79.06
2019-04-27T04:55:16.956Z,79.17
2019-04-27T04:56:20.459Z,79.20
2019-04-27T04:57:23.958Z,79.38
2019-04-27T04:58:29.270Z,79.04
2019-04-27T04:59:32.610Z,79.11
2019-04-27T05:00:36.104Z,79.11
2019-04-27T05:01:39.996Z,78.86
2019-04-27T05:02:43.601Z,78.86
2019-04-27T05:03:48.733Z,78.89
2019-04-27T05:04:52.276Z,79.16
2019-04-27T05:05:55.707Z,79.16
2019-04-27T05:06:59.358Z,78.85
2019-04-27T05:08:02.784Z,78.87
2019-04-27T05:09:06.525Z,78.84
2019-04-27T05:10:10.055Z,79.01
2019-04-27T05:11:13.544Z,79.11
2019-04-27T05:12:16.972Z,79.08
2019-04-27T05:13:20.408Z,78.89
2019-04-27T05:14:23.889Z,78.93
2019-04-27T05:15:29.204Z,79.32
2019-04-27T05:16:32.889Z,79.32
2019-04-27T05:17:36.418Z,78.98
2019-04-27T05:18:41.495Z,79.14
2019-04-27T05:19:44.928Z,79.04
2019-04-27T05:20:52.808Z,78.83
2019-04-27T05:21:56.235Z,78.74
2019-04-27T05:22:59.748Z,78.62
2019-04-27T05:24:03.423Z,78.36
2019-04-27T05:25:06.845Z,78.53
2019-04-27T05:26:10.298Z,78.53
2019-04-27T05:27:13.727Z,78.39
2019-04-27T05:28:18.769Z,78.41
2019-04-27T05:29:22.259Z,78.34
2019-04-27T05:30:25.818Z,78.37
2019-04-27T05:31:29.853Z,78.41
2019-04-27T05:32:33.257Z,78.41
2019-04-27T05:33:36.673Z,78.26
2019-04-27T05:34:40.164Z,78.38
2019-04-27T05:35:43.585Z,78.38
2019-04-27T05:36:48.963Z,78.54
2019-04-27T05:37:52.190Z,78.37
2019-04-27T05:38:55.612Z,78.37
2019-04-27T05:39:59.039Z,78.52
2019-04-27T05:41:02.556Z,78.47
2019-04-27T05:42:06.076Z,78.39
2019-04-27T05:43:10.475Z,78.30
2019-04-27T05:44:18.284Z,78.23
2019-04-27T05:45:37.266Z,78.25
2019-04-27T05:46:42.363Z,78.14
2019-04-27T05:47:50.414Z,78.00
2019-04-27T05:48:52.649Z,77.68
2019-04-27T05:49:58.929Z,77.68
2019-04-27T05:51:02.331Z,77.79
2019-04-27T05:52:08.616Z,77.92
2019-04-27T05:53:12.560Z,77.67
2019-04-27T05:54:15.986Z,77.56
2019-04-27T05:55:19.482Z,77.33
2019-04-27T05:56:23.006Z,77.37
2019-04-27T05:57:30.780Z,77.76
2019-04-27T05:58:31.903Z,77.87
2019-04-27T05:59:35.363Z,77.82
2019-04-27T06:00:39.393Z,77.74
2019-04-27T06:01:42.828Z,77.63
2019-04-27T06:02:46.259Z,77.91
2019-04-27T06:03:49.899Z,78.15
2019-04-27T06:04:53.340Z,78.27
2019-04-27T06:05:56.791Z,78.28
2019-04-27T06:07:01.014Z,78.20
2019-04-27T06:08:04.709Z,78.33
2019-04-27T06:09:09.491Z,78.44
2019-04-27T06:10:13.223Z,78.39
2019-04-27T06:11:16.720Z,78.39
2019-04-27T06:12:20.226Z,78.86
2019-04-27T06:13:23.725Z,78.76
2019-04-27T06:14:27.151Z,78.76
2019-04-27T06:15:30.651Z,79.29
2019-04-27T06:16:34.075Z,79.32
2019-04-27T06:17:38.693Z,79.39
2019-04-27T06:18:44.741Z,79.39
2019-04-27T06:19:49.306Z,79.29
2019-04-27T06:20:55.708Z,79.28
2019-04-27T06:21:59.478Z,79.32
2019-04-27T06:23:03.085Z,79.32
2019-04-27T06:24:06.580Z,79.39
2019-04-27T06:25:11.679Z,79.46
2019-04-27T06:26:15.484Z,79.66
2019-04-27T06:27:20.969Z,79.62
2019-04-27T06:28:24.088Z,79.84
2019-04-27T06:29:29.284Z,79.84
2019-04-27T06:30:32.862Z,79.69
2019-04-27T06:31:36.300Z,79.15
2019-04-27T06:32:39.721Z,79.36
2019-04-27T06:33:43.179Z,79.47
2019-04-27T06:34:46.682Z,79.60
2019-04-27T06:35:50.551Z,79.60
2019-04-27T06:36:53.972Z,79.54
2019-04-27T06:37:58.567Z,79.55
2019-04-27T06:39:02.125Z,79.59
2019-04-27T06:40:06.808Z,79.59
2019-04-27T06:41:10.295Z,79.55
2019-04-27T06:42:18.533Z,79.54
2019-04-27T06:43:19.017Z,79.02
2019-04-27T06:44:22.475Z,79.02
2019-04-27T06:45:25.915Z,79.30
2019-04-27T06:46:29.334Z,79.44
2019-04-27T06:47:32.764Z,79.44
2019-04-27T06:48:36.265Z,79.58
2019-04-27T06:49:39.791Z,79.53
2019-04-27T06:50:43.217Z,78.61
2019-04-27T06:51:46.662Z,78.58
2019-04-27T06:52:50.073Z,78.41
2019-04-27T06:53:53.500Z,78.42
2019-04-27T06:54:57.023Z,78.57
2019-04-27T06:56:00.443Z,78.82
2019-04-27T06:57:04.038Z,78.25
2019-04-27T06:58:08.993Z,78.32
2019-04-27T06:59:12.532Z,78.59
2019-04-27T07:00:16.025Z,78.42
2019-04-27T07:01:19.457Z,78.63
2019-04-27T07:02:22.955Z,78.81
2019-04-27T07:03:26.383Z,78.85
2019-04-27T07:04:29.834Z,78.67
2019-04-27T07:05:33.258Z,78.62
2019-04-27T07:06:36.687Z,78.71
2019-04-27T07:07:40.119Z,78.78
2019-04-27T07:08:43.541Z,78.60
2019-04-27T07:09:47.004Z,78.73
2019-04-27T07:10:50.428Z,78.73
2019-04-27T07:11:53.855Z,78.90
2019-04-27T07:12:57.285Z,79.10
2019-04-27T07:14:00.721Z,79.29
2019-04-27T07:15:06.211Z,79.52
2019-04-27T07:16:09.730Z,79.41
2019-04-27T07:17:13.313Z,79.39
2019-04-27T07:18:18.536Z,79.32
2019-04-27T07:19:22.123Z,79.42
2019-04-27T07:20:25.548Z,79.52
2019-04-27T07:21:29.207Z,79.62
2019-04-27T07:22:32.737Z,79.64
2019-04-27T07:23:38.860Z,79.60
2019-04-27T07:24:42.474Z,79.40
2019-04-27T07:25:45.927Z,79.15
2019-04-27T07:26:49.358Z,78.73
2019-04-27T07:27:52.785Z,78.96
2019-04-27T07:28:56.451Z,78.86
2019-04-27T07:30:01.712Z,79.32
2019-04-27T07:31:05.266Z,79.62
2019-04-27T07:32:09.288Z,79.87
2019-04-27T07:33:12.735Z,79.80
2019-04-27T07:34:16.248Z,79.68
2019-04-27T07:35:19.896Z,79.76
2019-04-27T07:36:23.319Z,78.98
2019-04-27T07:37:26.741Z,79.29
2019-04-27T07:38:30.233Z,79.55
2019-04-27T07:39:33.686Z,79.53
2019-04-27T07:40:40.036Z,79.25
2019-04-27T07:41:42.268Z,79.25
2019-04-27T07:42:47.360Z,79.49
2019-04-27T07:43:52.443Z,79.39
2019-04-27T07:45:09.330Z,79.51
2019-04-27T07:46:14.305Z,79.23
2019-04-27T07:47:19.630Z,78.93
2019-04-27T07:48:23.043Z,78.72
2019-04-27T07:49:26.476Z,78.87
2019-04-27T07:50:29.932Z,78.85
2019-04-27T07:51:34.445Z,78.79
2019-04-27T07:52:40.280Z,78.63
2019-04-27T07:53:43.138Z,78.47
2019-04-27T07:54:46.660Z,78.49
2019-04-27T07:55:50.110Z,78.57
2019-04-27T07:56:53.542Z,78.38
2019-04-27T07:57:56.973Z,78.53
2019-04-27T07:59:00.462Z,78.61
2019-04-27T08:00:09.391Z,78.45
2019-04-27T08:01:12.884Z,78.34
2019-04-27T08:02:16.453Z,78.26
2019-04-27T08:03:19.885Z,78.19
2019-04-27T08:04:23.389Z,77.89
2019-04-27T08:05:26.836Z,78.09
2019-04-27T08:06:30.337Z,78.07
2019-04-27T08:07:33.767Z,77.98
2019-04-27T08:08:37.202Z,78.02
2019-04-27T08:09:40.703Z,77.11
2019-04-27T08:10:44.149Z,76.89
2019-04-27T08:11:48.806Z,76.15
2019-04-27T08:12:52.376Z,76.27
2019-04-27T08:13:55.812Z,76.49
2019-04-27T08:15:00.034Z,76.06
2019-04-27T08:16:03.621Z,74.88
2019-04-27T08:17:07.055Z,75.26
2019-04-27T08:18:10.486Z,74.63
2019-04-27T08:19:13.934Z,74.67
2019-04-27T08:20:20.875Z,73.56
2019-04-27T08:21:22.590Z,73.01
2019-04-27T08:22:26.035Z,73.77
2019-04-27T08:23:29.558Z,73.91
2019-04-27T08:24:33.087Z,73.81
2019-04-27T08:25:36.503Z,74.18
2019-04-27T08:26:44.451Z,73.10
2019-04-27T08:27:52.073Z,72.76
2019-04-27T08:29:13.019Z,73.02
2019-04-27T08:30:30.333Z,73.18
2019-04-27T08:31:35.532Z,72.75
2019-04-27T08:32:43.400Z,71.45
2019-04-27T08:33:48.547Z,71.56
2019-04-27T08:34:52.127Z,71.21
2019-04-27T08:35:55.557Z,70.69
2019-04-27T08:37:00.749Z,70.98
2019-04-27T08:38:04.464Z,70.21
2019-04-27T08:39:08.899Z,69.79
2019-04-27T08:40:12.576Z,69.62
2019-04-27T08:41:16.078Z,69.49
2019-04-27T08:42:19.536Z,70.13
2019-04-27T08:43:22.966Z,70.13
2019-04-27T08:44:26.403Z,70.39
2019-04-27T08:45:29.836Z,69.65
2019-04-27T08:46:33.288Z,69.57
2019-04-27T08:47:36.782Z,69.88
2019-04-27T08:48:40.216Z,69.97
2019-04-27T08:49:43.649Z,69.91
2019-04-27T08:50:48.624Z,69.47
2019-04-27T08:51:58.807Z,68.59
2019-04-27T08:52:57.489Z,68.63
2019-04-27T08:54:00.905Z,68.33
2019-04-27T08:55:06.472Z,68.48
2019-04-27T08:56:09.975Z,68.54
2019-04-27T08:57:13.437Z,66.96
2019-04-27T08:58:19.725Z,66.69
2019-04-27T08:59:22.003Z,66.98
2019-04-27T09:00:25.496Z,66.09
2019-04-27T09:01:29.904Z,65.72
2019-04-27T09:02:44.120Z,66.07
2019-04-27T09:03:39.518Z,66.10
2019-04-27T09:04:43.037Z,66.23
2019-04-27T09:05:46.463Z,65.50
2019-04-27T09:06:51.550Z,65.22
2019-04-27T09:08:14.034Z,64.99
2019-04-27T09:09:33.882Z,64.98
2019-04-27T09:10:51.053Z,64.72
2019-04-27T09:12:05.137Z,65.06
2019-04-27T09:13:10.188Z,64.29
2019-04-27T09:14:20.967Z,64.24
2019-04-27T09:15:29.273Z,63.87
2019-04-27T09:16:38.837Z,62.99
2019-04-27T09:17:43.985Z,63.27
2019-04-27T09:18:49.715Z,62.74
2019-04-27T09:19:59.156Z,62.72
2019-04-27T09:21:04.078Z,62.94
2019-04-27T09:22:15.662Z,61.56
2019-04-27T09:23:15.351Z,62.05
2019-04-27T09:24:18.911Z,60.89
2019-04-27T09:25:22.359Z,61.72
2019-04-27T09:26:25.853Z,60.71
2019-04-27T09:27:29.281Z,60.66
2019-04-27T09:28:35.736Z,60.14
2019-04-27T09:29:39.628Z,60.52
2019-04-27T09:30:43.142Z,60.69
2019-04-27T09:31:46.581Z,61.21
2019-04-27T09:32:50.020Z,61.00
2019-04-27T09:33:53.473Z,61.40
2019-04-27T09:34:57.090Z,61.63
2019-04-27T09:36:00.485Z,60.96
2019-04-27T09:37:03.992Z,61.19
2019-04-27T09:38:07.500Z,61.21
2019-04-27T09:39:12.106Z,59.89
2019-04-27T09:40:17.137Z,60.30
2019-04-27T09:41:20.613Z,59.65
2019-04-27T09:42:24.043Z,59.40
2019-04-27T09:43:27.496Z,59.31
2019-04-27T09:44:30.932Z,59.05
2019-04-27T09:45:34.431Z,58.99
2019-04-27T09:46:37.859Z,59.17
2019-04-27T09:47:41.289Z,59.36
2019-04-27T09:48:46.468Z,59.41
2019-04-27T09:49:50.093Z,59.81
2019-04-27T09:50:53.621Z,59.86
2019-04-27T09:51:57.048Z,59.64
2019-04-27T09:53:00.489Z,59.69
2019-04-27T09:54:05.765Z,59.83
2019-04-27T09:55:09.551Z,60.00
2019-04-27T09:56:12.989Z,59.77
2019-04-27T09:57:16.559Z,58.01
2019-04-27T09:58:20.005Z,57.84
2019-04-27T09:59:23.461Z,58.66
2019-04-27T10:00:27.872Z,58.51
2019-04-27T10:01:31.480Z,58.56
2019-04-27T10:02:36.555Z,58.41
2019-04-27T10:03:40.154Z,58.57
2019-04-27T10:04:43.586Z,58.58
2019-04-27T10:05:47.029Z,58.58
2019-04-27T10:06:50.569Z,58.42
2019-04-27T10:07:54.068Z,57.82
2019-04-27T10:08:57.725Z,57.03
2019-04-27T10:10:01.232Z,57.59
2019-04-27T10:11:05.954Z,57.52
2019-04-27T10:12:09.517Z,56.62
2019-04-27T10:13:13.014Z,55.42
2019-04-27T10:14:16.610Z,55.40
2019-04-27T10:15:20.183Z,55.68
2019-04-27T10:16:25.595Z,55.60
2019-04-27T10:17:28.917Z,55.95
2019-04-27T10:18:32.372Z,56.22
2019-04-27T10:19:36.572Z,56.05
2019-04-27T10:20:41.054Z,56.38
2019-04-27T10:21:44.630Z,56.36
2019-04-27T10:22:48.141Z,56.44
2019-04-27T10:23:51.602Z,56.22
2019-04-27T10:24:55.042Z,55.90
2019-04-27T10:25:58.487Z,55.92
2019-04-27T10:27:01.931Z,56.45
2019-04-27T10:28:06.766Z,56.55
2019-04-27T10:29:10.359Z,56.15
2019-04-27T10:30:15.327Z,56.44
2019-04-27T10:31:19.231Z,56.13
2019-04-27T10:32:22.652Z,55.86
2019-04-27T10:33:26.650Z,55.74
2019-04-27T10:34:30.139Z,55.53
2019-04-27T10:35:33.572Z,55.24
2019-04-27T10:36:39.427Z,54.97
2019-04-27T10:37:42.835Z,55.13
2019-04-27T10:38:46.372Z,55.13
2019-04-27T10:39:49.805Z,55.27
2019-04-27T10:40:53.301Z,54.38
2019-04-27T10:41:56.747Z,54.53
2019-04-27T10:43:00.175Z,54.26
2019-04-27T10:44:03.640Z,54.51
2019-04-27T10:45:08.379Z,54.36
2019-04-27T10:46:11.819Z,54.67
2019-04-27T10:47:15.847Z,54.51
2019-04-27T10:48:19.336Z,54.46
2019-04-27T10:49:22.883Z,54.68
2019-04-27T10:50:26.682Z,54.93
2019-04-27T10:51:30.236Z,55.91
2019-04-27T10:52:33.681Z,57.08
2019-04-27T10:53:38.964Z,54.90
2019-04-27T10:54:42.393Z,54.40
2019-04-27T10:55:46.421Z,55.16
2019-04-27T10:56:49.998Z,54.62
2019-04-27T10:57:53.495Z,55.45
2019-04-27T10:58:57.034Z,54.80
2019-04-27T11:00:00.536Z,54.39
2019-04-27T11:01:05.693Z,53.86
2019-04-27T11:02:09.254Z,53.51
2019-04-27T11:03:14.308Z,53.00
2019-04-27T11:04:22.156Z,53.09
2019-04-27T11:05:31.239Z,52.30
2019-04-27T11:06:36.462Z,52.73
2019-04-27T11:07:40.830Z,53.00
2019-04-27T11:08:44.310Z,52.50
2019-04-27T11:09:47.754Z,53.07
2019-04-27T11:10:51.329Z,52.95
2019-04-27T11:11:56.596Z,53.40
2019-04-27T11:13:00.152Z,53.19
2019-04-27T11:14:03.840Z,52.54
2019-04-27T11:15:09.432Z,52.47
2019-04-27T11:16:12.997Z,51.90
2019-04-27T11:17:16.520Z,52.27
2019-04-27T11:18:19.931Z,48.90
2019-04-27T11:19:23.394Z,48.79
2019-04-27T11:20:27.784Z,48.82
2019-04-27T11:21:31.369Z,48.95
2019-04-27T11:22:36.322Z,48.91
2019-04-27T11:23:39.845Z,48.75
2019-04-27T11:24:43.315Z,47.92
2019-04-27T11:25:46.959Z,47.65
2019-04-27T11:26:50.385Z,47.66
2019-04-27T11:27:55.620Z,48.02
2019-04-27T11:28:59.040Z,48.39
2019-04-27T11:30:02.753Z,48.41
2019-04-27T11:31:06.924Z,47.79
2019-04-27T11:32:10.495Z,47.94
2019-04-27T11:33:14.001Z,47.73
2019-04-27T11:34:17.657Z,47.59
2019-04-27T11:35:22.821Z,46.70
2019-04-27T11:36:27.964Z,47.31
2019-04-27T11:37:33.102Z,47.14
2019-04-27T11:38:36.683Z,45.96
2019-04-27T11:39:40.253Z,46.02
2019-04-27T11:40:43.780Z,44.91
2019-04-27T11:41:47.363Z,44.10
2019-04-27T11:42:50.860Z,44.36
2019-04-27T11:43:54.297Z,45.05
2019-04-27T11:44:58.395Z,45.55
2019-04-27T11:46:01.834Z,46.07
2019-04-27T11:47:06.023Z,47.14
2019-04-27T11:48:09.526Z,48.01
2019-04-27T11:49:12.956Z,48.53
2019-04-27T11:50:16.813Z,48.97
2019-04-27T11:51:20.340Z,49.25
2019-04-27T11:52:23.764Z,49.34
2019-04-27T11:53:27.216Z,49.56
2019-04-27T11:54:30.645Z,49.38
2019-04-27T11:55:34.231Z,49.14
2019-04-27T11:56:37.831Z,49.02
2019-04-27T11:57:41.346Z,48.25
2019-04-27T11:58:44.772Z,47.16
2019-04-27T11:59:48.215Z,46.68
2019-04-27T12:00:51.638Z,45.00
2019-04-27T12:01:55.954Z,44.99
2019-04-27T12:02:59.376Z,44.34
2019-04-27T12:04:02.807Z,44.18
2019-04-27T12:05:08.092Z,44.50
2019-04-27T12:06:11.571Z,44.64
2019-04-27T12:07:15.088Z,44.98
2019-04-27T12:08:18.529Z,44.97
2019-04-27T12:09:21.946Z,45.50
2019-04-27T12:10:26.289Z,45.39
2019-04-27T12:11:29.821Z,45.56
2019-04-27T12:12:33.588Z,45.91
2019-04-27T12:13:37.026Z,45.46
2019-04-27T12:14:40.450Z,45.02
2019-04-27T12:15:44.010Z,44.92
2019-04-27T12:16:47.469Z,44.00
2019-04-27T12:17:50.923Z,43.87
2019-04-27T12:18:56.234Z,43.27
2019-04-27T12:19:59.502Z,43.13
2019-04-27T12:21:03.020Z,44.15
2019-04-27T12:22:06.546Z,44.61
2019-04-27T12:23:09.977Z,45.04
2019-04-27T12:24:13.473Z,45.44
2019-04-27T12:25:17.158Z,45.70
2019-04-27T12:26:28.027Z,45.91
2019-04-27T12:27:33.234Z,46.83
2019-04-27T12:28:45.870Z,47.31
2019-04-27T12:30:02.931Z,47.97
2019-04-27T12:31:10.995Z,48.44
2019-04-27T12:32:15.637Z,48.75
2019-04-27T12:33:19.132Z,48.89
2019-04-27T12:34:22.563Z,49.17
2019-04-27T12:35:25.989Z,49.45
2019-04-27T12:36:29.498Z,49.70
2019-04-27T12:37:32.975Z,50.01
2019-04-27T12:38:36.684Z,50.16
2019-04-27T12:39:40.169Z,50.37
2019-04-27T12:40:43.602Z,50.25
2019-04-27T12:41:47.089Z,50.18
2019-04-27T12:42:50.664Z,50.27
2019-04-27T12:43:56.006Z,50.49
2019-04-27T12:44:59.679Z,50.82
2019-04-27T12:46:03.175Z,51.23
2019-04-27T12:47:06.636Z,51.28
2019-04-27T12:48:10.199Z,51.33
2019-04-27T12:49:13.703Z,51.56
2019-04-27T12:50:17.601Z,51.49
2019-04-27T12:51:21.171Z,51.61
2019-04-27T12:52:25.940Z,51.64
2019-04-27T12:53:31.085Z,51.21
2019-04-27T12:54:36.347Z,50.90
2019-04-27T12:55:46.931Z,50.51
2019-04-27T12:56:52.066Z,50.00
2019-04-27T12:57:57.159Z,50.40
2019-04-27T12:59:04.924Z,50.28
2019-04-27T13:00:19.562Z,49.83
2019-04-27T13:01:27.550Z,50.41
2019-04-27T13:02:35.049Z,50.40
2019-04-27T13:03:38.541Z,50.02
2019-04-27T13:04:42.037Z,50.09
2019-04-27T13:05:45.465Z,50.01
2019-04-27T13:06:48.893Z,48.76
2019-04-27T13:07:52.456Z,48.31
2019-04-27T13:08:55.942Z,47.50
2019-04-27T13:09:59.332Z,47.25
2019-04-27T13:11:02.846Z,47.48
2019-04-27T13:12:06.344Z,47.10
2019-04-27T13:13:09.871Z,47.08
2019-04-27T13:14:13.328Z,46.90
2019-04-27T13:15:17.297Z,46.79
2019-04-27T13:16:20.729Z,47.20
2019-04-27T13:17:24.236Z,46.97
2019-04-27T13:18:27.753Z,46.92
2019-04-27T13:19:31.194Z,45.81
2019-04-27T13:20:35.877Z,45.79
2019-04-27T13:21:39.450Z,45.33
2019-04-27T13:22:42.943Z,44.75
2019-04-27T13:23:46.399Z,44.26
2019-04-27T13:24:49.831Z,43.06
2019-04-27T13:25:53.258Z,43.12
2019-04-27T13:26:56.714Z,42.04
2019-04-27T13:28:00.147Z,43.10
2019-04-27T13:29:03.604Z,43.39
2019-04-27T13:30:08.765Z,43.71
2019-04-27T13:31:12.197Z,44.10
2019-04-27T13:32:16.409Z,44.46
2019-04-27T13:33:19.966Z,43.74
2019-04-27T13:34:23.477Z,44.77
2019-04-27T13:35:26.931Z,45.30
2019-04-27T13:36:32.994Z,45.43
2019-04-27T13:37:37.149Z,45.49
2019-04-27T13:38:40.576Z,45.38
2019-04-27T13:39:44.062Z,45.45
2019-04-27T13:40:49.139Z,45.99
2019-04-27T13:41:52.580Z,46.01
2019-04-27T13:43:16.730Z,46.30
2019-04-27T13:44:20.226Z,46.85
2019-04-27T13:45:31.205Z,46.92
2019-04-27T13:46:39.253Z,46.84
2019-04-27T13:48:00.362Z,46.31
2019-04-27T13:49:21.686Z,45.19
2019-04-27T13:50:29.630Z,44.26
2019-04-27T13:51:37.137Z,42.60
2019-04-27T13:52:40.568Z,41.99
2019-04-27T13:53:45.591Z,40.66
2019-04-27T13:54:49.167Z,37.83
2019-04-27T13:55:52.625Z,36.42
2019-04-27T13:56:56.380Z,37.52
2019-04-27T13:57:59.814Z,36.27